Time;durP1;ratioP1;P1;durP2;ratioP2;P2;SDS_P1;SDS_P2;PMS_P1;PMS_P2;Temp;Humidity;BMP_temperature;BMP_pressure;BME280_temperature;BME280_humidity;BME280_pressure;Samples;Min_cycle;Max_cycle;Signal;HPM_P1;HPM_P2
2021/06/05 00:02:20;;;;;;;20.07;14.97;;;14.10;99.90;;;;;;4965200;28;20176;-83
2021/06/05 00:04:46;;;;;;;16.93;15.13;;;14.10;99.90;;;;;;4989553;28;20165;-83
2021/06/05 00:07:12;;;;;;;19.63;14.93;;;14.10;99.90;;;;;;4985628;28;20224;-83
2021/06/05 00:09:39;;;;;;;20.97;15.30;;;14.10;99.90;;;;;;4982265;28;20291;-83
2021/06/05 00:12:05;;;;;;;17.57;14.90;;;14.00;99.90;;;;;;4966459;28;20176;-83
2021/06/05 00:14:31;;;;;;;16.20;14.50;;;14.00;99.90;;;;;;4966663;28;20216;-83
2021/06/05 00:16:57;;;;;;;17.07;15.17;;;14.10;99.90;;;;;;4966392;28;20180;-84
2021/06/05 00:19:22;;;;;;;16.97;14.37;;;14.00;99.90;;;;;;4983058;28;20196;-84
2021/06/05 00:21:49;;;;;;;18.23;14.87;;;14.00;99.90;;;;;;4966075;28;20184;-84
2021/06/05 00:24:16;;;;;;;15.97;13.80;;;14.00;99.90;;;;;;4965822;28;20187;-83
2021/06/05 00:26:42;;;;;;;17.33;14.77;;;14.00;99.90;;;;;;4983550;28;20190;-84
2021/06/05 00:29:08;;;;;;;15.73;14.03;;;14.00;99.90;;;;;;4965839;28;20235;-84
2021/06/05 00:31:33;;;;;;;18.07;14.40;;;14.00;99.90;;;;;;4965834;28;20191;-84
2021/06/05 00:33:59;;;;;;;15.37;13.57;;;14.00;99.90;;;;;;4984237;28;20180;-84
2021/06/05 00:36:25;;;;;;;15.17;12.63;;;14.00;99.90;;;;;;4966142;28;20212;-84
2021/06/05 00:38:52;;;;;;;14.53;12.53;;;14.10;99.90;;;;;;4982983;28;20164;-84
2021/06/05 00:41:19;;;;;;;13.80;12.40;;;14.20;99.90;;;;;;4983369;28;20173;-84
2021/06/05 00:43:50;;;;;;;13.93;12.17;;;14.20;99.90;;;;;;4983682;28;20174;-83
2021/06/05 00:46:18;;;;;;;15.00;12.37;;;14.30;99.90;;;;;;4964966;28;20634;-84
2021/06/05 00:48:44;;;;;;;13.13;11.83;;;14.40;99.90;;;;;;4982408;28;20187;-83
2021/06/05 00:51:11;;;;;;;13.40;12.00;;;14.40;99.90;;;;;;4981971;28;20188;-83
2021/06/05 00:53:36;;;;;;;12.40;10.27;;;14.40;99.90;;;;;;4982849;28;20188;-83
2021/06/05 00:56:05;;;;;;;11.57;10.37;;;14.50;99.90;;;;;;4982405;28;20200;-84
2021/06/05 00:58:31;;;;;;;11.93;10.57;;;14.60;99.90;;;;;;4964861;28;20207;-84
2021/06/05 01:01:16;;;;;;;14.23;10.73;;;14.80;99.90;;;;;;4964294;28;20200;-84
2021/06/05 01:03:43;;;;;;;12.93;11.00;;;14.90;99.90;;;;;;4964715;28;20204;-84
2021/06/05 01:06:31;;;;;;;11.57;9.73;;;15.00;99.90;;;;;;4980398;28;20631;-84
2021/06/05 01:09:12;;;;;;;11.17;10.07;;;15.10;99.90;;;;;;4982208;28;20187;-83
2021/06/05 01:11:46;;;;;;;11.37;10.13;;;15.20;99.90;;;;;;4981956;28;20342;-84
2021/06/05 01:14:30;;;;;;;11.40;9.13;;;15.30;99.90;;;;;;4964232;28;20188;-83
2021/06/05 01:17:07;;;;;;;12.83;10.23;;;15.30;99.90;;;;;;4963882;28;20286;-83
2021/06/05 01:19:40;;;;;;;11.33;9.73;;;15.30;99.90;;;;;;4963340;28;20195;-83
2021/06/05 01:22:40;;;;;;;10.93;8.63;;;15.30;99.90;;;;;;4963942;28;20243;-84
2021/06/05 01:25:22;;;;;;;10.60;8.73;;;15.30;99.90;;;;;;4963570;28;20630;-83
2021/06/05 01:28:12;;;;;;;10.43;8.67;;;15.30;99.90;;;;;;4981389;28;20200;-84
2021/06/05 01:30:42;;;;;;;10.30;7.67;;;15.30;99.90;;;;;;4981198;28;20200;-84
2021/06/05 01:33:09;;;;;;;8.57;7.63;;;15.30;99.90;;;;;;4964470;28;20183;-84
2021/06/05 01:35:36;;;;;;;8.37;6.80;;;15.20;99.90;;;;;;4963648;28;20239;-84
2021/06/05 01:38:03;;;;;;;6.93;6.30;;;15.30;99.90;;;;;;4962365;28;20673;-83
2021/06/05 01:40:30;;;;;;;6.87;6.07;;;15.20;99.90;;;;;;4961443;28;20721;-83
2021/06/05 01:42:58;;;;;;;8.27;5.77;;;15.20;99.90;;;;;;4978093;28;20531;-83
2021/06/05 01:45:38;;;;;;;8.73;5.53;;;15.20;99.90;;;;;;4962073;28;20275;-84
2021/06/05 01:48:06;;;;;;;6.80;5.40;;;15.20;99.90;;;;;;4971696;28;20199;-83
2021/06/05 01:50:35;;;;;;;7.33;5.73;;;15.20;99.90;;;;;;4963914;28;20212;-84
2021/06/05 01:53:28;;;;;;;7.07;5.13;;;15.10;99.90;;;;;;4982219;28;20179;-84
2021/06/05 01:56:35;;;;;;;5.23;4.70;;;15.10;99.90;;;;;;4961547;28;20220;-83
2021/06/05 01:59:02;;;;;;;7.07;4.20;;;15.00;99.90;;;;;;4977881;28;20192;-84
2021/06/05 02:01:28;;;;;;;6.40;4.53;;;15.00;99.90;;;;;;4964922;28;20179;-84
2021/06/05 02:03:53;;;;;;;5.77;4.10;;;15.00;99.90;;;;;;4968182;28;20176;-84
2021/06/05 02:06:22;;;;;;;5.37;3.80;;;15.10;99.90;;;;;;4968104;28;20185;-84
2021/06/05 02:08:48;;;;;;;8.03;3.37;;;15.00;99.90;;;;;;4967661;28;20181;-84
2021/06/05 02:11:16;;;;;;;3.60;2.50;;;14.90;99.90;;;;;;4967940;28;20271;-84
2021/06/05 02:13:49;;;;;;;3.63;2.60;;;14.90;99.90;;;;;;4984957;28;20255;-83
2021/06/05 02:16:21;;;;;;;4.47;2.20;;;14.80;99.90;;;;;;4985422;28;20196;-84
2021/06/05 02:18:57;;;;;;;2.60;1.93;;;14.80;99.90;;;;;;4986274;28;20176;-83
2021/06/05 02:21:27;;;;;;;2.13;1.57;;;14.90;99.90;;;;;;4971271;28;20255;-84
2021/06/05 02:23:59;;;;;;;3.90;1.73;;;14.90;99.90;;;;;;4972850;28;20180;-83
2021/06/05 02:26:25;;;;;;;3.17;1.87;;;14.90;99.90;;;;;;4969289;28;20187;-83
2021/06/05 02:28:56;;;;;;;1.90;1.60;;;14.90;99.90;;;;;;4966673;28;20187;-83
2021/06/05 02:31:22;;;;;;;2.50;1.50;;;14.80;99.90;;;;;;4984988;28;20251;-83
2021/06/05 02:33:49;;;;;;;1.40;1.23;;;14.80;99.90;;;;;;4967752;28;20188;-83
2021/06/05 02:36:15;;;;;;;2.27;1.27;;;14.70;99.90;;;;;;4984988;28;20211;-84
2021/06/05 02:38:45;;;;;;;2.07;1.57;;;14.70;99.90;;;;;;4967265;28;20176;-84
2021/06/05 02:41:14;;;;;;;4.50;1.67;;;14.70;99.90;;;;;;4967708;28;20172;-84
2021/06/05 02:43:42;;;;;;;3.43;1.83;;;14.70;99.90;;;;;;4983686;28;20239;-83
2021/06/05 02:46:24;;;;;;;2.70;1.60;;;14.60;99.90;;;;;;4965554;28;20271;-83
2021/06/05 02:48:55;;;;;;;2.70;1.50;;;14.50;99.90;;;;;;4983043;28;20176;-84
2021/06/05 02:51:24;;;;;;;2.07;1.50;;;14.40;99.90;;;;;;4982375;28;20223;-84
2021/06/05 02:53:49;;;;;;;1.90;1.50;;;14.40;99.90;;;;;;4982761;28;20168;-83
2021/06/05 02:56:16;;;;;;;3.10;1.93;;;14.30;99.90;;;;;;4981560;28;20219;-83
2021/06/05 02:58:42;;;;;;;1.90;1.70;;;14.30;99.90;;;;;;4963995;28;20176;-83
2021/06/05 03:01:12;;;;;;;3.37;1.70;;;14.20;99.90;;;;;;4963850;28;20219;-83
2021/06/05 03:03:39;;;;;;;2.90;1.60;;;14.20;99.90;;;;;;4980986;28;20180;-83
2021/06/05 03:06:06;;;;;;;3.60;1.80;;;14.20;99.90;;;;;;4964216;28;20211;-83
2021/06/05 03:08:35;;;;;;;2.33;1.70;;;14.30;99.90;;;;;;4963751;28;20219;-83
2021/06/05 03:11:07;;;;;;;4.07;1.70;;;14.30;99.90;;;;;;4963755;28;20212;-83
2021/06/05 03:13:33;;;;;;;2.33;1.80;;;14.30;99.90;;;;;;4981748;28;20706;-84
2021/06/05 03:15:58;;;;;;;2.47;1.67;;;14.40;99.90;;;;;;4983402;28;20228;-84
2021/06/05 03:18:25;;;;;;;2.53;1.70;;;14.40;99.90;;;;;;4966230;28;20212;-83
2021/06/05 03:20:54;;;;;;;3.13;1.70;;;14.40;99.90;;;;;;4984128;28;20618;-83
2021/06/05 03:23:24;;;;;;;4.00;1.93;;;14.30;99.90;;;;;;4966866;28;20183;-83
2021/06/05 03:25:51;;;;;;;2.57;1.67;;;14.40;99.90;;;;;;4966249;28;20180;-83
2021/06/05 03:28:20;;;;;;;10.33;2.30;;;14.40;99.90;;;;;;4966044;28;20606;-83
2021/06/05 03:30:46;;;;;;;4.53;2.50;;;14.40;99.90;;;;;;4966316;28;20285;-83
2021/06/05 03:33:12;;;;;;;3.10;1.97;;;14.30;99.90;;;;;;4984315;28;20172;-83
2021/06/05 03:35:38;;;;;;;5.47;2.30;;;14.30;99.90;;;;;;4984021;28;20235;-83
2021/06/05 03:38:06;;;;;;;2.10;1.90;;;14.30;99.90;;;;;;4984180;28;20172;-83
2021/06/05 03:40:33;;;;;;;4.20;2.37;;;14.30;99.90;;;;;;4967138;28;20219;-83
2021/06/05 03:43:00;;;;;;;2.60;2.00;;;14.30;99.90;;;;;;4966575;28;20188;-83
2021/06/05 03:45:26;;;;;;;2.60;2.20;;;14.30;99.90;;;;;;4983964;28;20650;-83
2021/06/05 03:47:54;;;;;;;3.53;2.43;;;14.30;99.90;;;;;;4966418;28;20183;-83
2021/06/05 03:50:28;;;;;;;2.93;2.20;;;14.30;99.90;;;;;;4965791;28;20610;-83
2021/06/05 03:52:54;;;;;;;4.00;1.93;;;14.20;99.90;;;;;;4983655;28;20203;-83
2021/06/05 03:55:20;;;;;;;2.40;2.10;;;14.20;99.90;;;;;;4966316;28;20211;-83
2021/06/05 03:57:46;;;;;;;4.70;2.20;;;14.20;99.90;;;;;;4983669;28;20177;-83
2021/06/05 04:00:16;;;;;;;2.77;1.93;;;14.20;99.90;;;;;;4966249;28;20227;-82
2021/06/05 04:02:41;;;;;;;2.40;2.20;;;14.30;99.90;;;;;;4982858;28;20172;-82
2021/06/05 04:05:09;;;;;;;2.50;2.20;;;14.30;99.90;;;;;;4982583;28;20176;-82
2021/06/05 04:07:35;;;;;;;2.27;1.90;;;14.40;99.90;;;;;;4965132;28;20267;-83
2021/06/05 04:10:01;;;;;;;2.07;1.87;;;14.50;99.90;;;;;;4982185;28;20247;-82
2021/06/05 04:12:26;;;;;;;2.27;2.07;;;14.60;99.90;;;;;;4981876;28;20176;-83
2021/06/05 04:14:52;;;;;;;4.30;2.00;;;14.70;99.90;;;;;;4964403;28;20271;-82
2021/06/05 04:17:18;;;;;;;1.83;1.67;;;14.70;99.90;;;;;;4981465;28;20349;-83
2021/06/05 04:19:44;;;;;;;3.67;2.10;;;14.80;99.90;;;;;;4980407;28;20200;-83
2021/06/05 04:22:11;;;;;;;2.10;1.90;;;14.80;99.90;;;;;;4980498;28;20179;-82
2021/06/05 04:24:37;;;;;;;2.43;1.97;;;14.90;99.90;;;;;;4962918;28;20181;-82
2021/06/05 04:27:05;;;;;;;2.23;1.73;;;14.90;99.90;;;;;;4961929;28;20180;-82
2021/06/05 04:29:31;;;;;;;2.57;2.17;;;14.90;99.90;;;;;;4961240;28;20291;-82
2021/06/05 04:31:58;;;;;;;2.80;2.10;;;14.90;99.90;;;;;;4992652;28;20180;-83
2021/06/05 04:34:23;;;;;;;5.10;1.90;;;14.90;99.90;;;;;;4968026;28;20176;-83
2021/06/05 04:36:50;;;;;;;4.23;1.60;;;14.80;99.90;;;;;;4985332;28;20218;-83
2021/06/05 04:39:17;;;;;;;3.10;2.00;;;14.80;99.90;;;;;;4968948;28;20196;-83
2021/06/05 04:41:43;;;;;;;2.80;1.77;;;14.80;99.90;;;;;;4970126;28;20176;-84
2021/06/05 04:44:09;;;;;;;2.27;1.80;;;14.90;99.90;;;;;;4973040;28;20168;-83
2021/06/05 04:46:34;;;;;;;2.53;1.83;;;14.90;99.90;;;;;;4967754;28;20180;-83
2021/06/05 04:49:00;;;;;;;3.13;1.53;;;14.90;99.90;;;;;;4967280;28;20181;-83
2021/06/05 04:51:28;;;;;;;2.57;2.37;;;14.90;99.90;;;;;;4984989;28;20247;-83
2021/06/05 04:53:54;;;;;;;2.97;1.80;;;15.00;99.90;;;;;;4967964;28;20190;-83
2021/06/05 04:56:31;;;;;;;2.53;1.80;;;15.00;99.90;;;;;;4967244;28;20302;-83
2021/06/05 04:58:57;;;;;;;1.60;1.50;;;15.10;99.90;;;;;;4985174;28;20536;-83
2021/06/05 05:01:22;;;;;;;2.40;2.00;;;15.10;99.90;;;;;;4984251;28;20176;-83
2021/06/05 05:03:48;;;;;;;2.27;1.60;;;15.20;99.90;;;;;;4967342;28;20664;-83
2021/06/05 05:06:14;;;;;;;2.03;1.77;;;15.30;99.90;;;;;;4967014;28;20653;-83
2021/06/05 05:08:40;;;;;;;2.00;1.90;;;15.30;99.90;;;;;;4984312;28;20180;-83
2021/06/05 05:11:06;;;;;;;1.83;1.70;;;15.40;99.90;;;;;;4981391;28;20192;-83
2021/06/05 05:13:33;;;;;;;2.37;1.67;;;15.40;99.90;;;;;;4981084;28;20190;-83
2021/06/05 05:16:01;;;;;;;3.07;1.63;;;15.50;99.90;;;;;;4963788;28;20219;-83
2021/06/05 05:18:27;;;;;;;1.80;1.37;;;15.60;99.90;;;;;;4962525;28;20176;-83
2021/06/05 05:20:54;;;;;;;1.70;1.47;;;15.60;99.90;;;;;;4980815;28;20196;-83
2021/06/05 05:23:21;;;;;;;2.63;1.57;;;15.70;99.90;;;;;;4980859;28;20309;-84
2021/06/05 05:25:47;;;;;;;1.73;1.63;;;15.80;99.90;;;;;;4980032;28;20180;-83
2021/06/05 05:28:15;;;;;;;2.73;1.60;;;15.80;99.90;;;;;;4962564;28;20191;-84
2021/06/05 05:30:45;;;;;;;1.90;1.60;;;15.80;99.90;;;;;;4962411;28;20258;-84
2021/06/05 05:33:11;;;;;;;1.90;1.50;;;15.90;99.90;;;;;;4962740;28;20234;-84
2021/06/05 05:35:37;;;;;;;1.87;1.70;;;16.00;99.90;;;;;;4962408;28;20303;-82
2021/06/05 05:38:05;;;;;;;2.93;1.70;;;16.10;99.90;;;;;;4963524;28;20263;-83
2021/06/05 05:40:31;;;;;;;2.00;1.80;;;16.10;99.90;;;;;;4980869;28;20196;-83
2021/06/05 05:42:56;;;;;;;3.20;1.80;;;16.20;99.90;;;;;;4981958;28;20227;-83
2021/06/05 05:45:23;;;;;;;2.50;1.93;;;16.20;99.90;;;;;;4982110;28;20188;-83
2021/06/05 05:47:49;;;;;;;2.00;1.80;;;16.20;99.90;;;;;;4962551;28;20642;-84
2021/06/05 05:50:18;;;;;;;2.20;1.83;;;16.30;99.90;;;;;;4980053;28;20270;-84
2021/06/05 05:52:44;;;;;;;1.93;1.77;;;16.30;99.90;;;;;;4963086;28;20653;-83
2021/06/05 05:55:11;;;;;;;4.80;1.57;;;16.30;99.90;;;;;;4963907;28;20236;-83
2021/06/05 05:57:37;;;;;;;2.60;1.93;;;16.20;99.90;;;;;;4965072;28;20260;-83
2021/06/05 06:00:11;;;;;;;1.80;1.70;;;16.20;99.90;;;;;;4964992;28;20666;-83
2021/06/05 06:02:36;;;;;;;2.10;1.70;;;16.20;99.90;;;;;;4963831;28;20264;-83
2021/06/05 06:05:03;;;;;;;5.80;1.90;;;16.20;99.90;;;;;;4964622;28;20215;-83
2021/06/05 06:07:28;;;;;;;2.20;1.87;;;16.20;99.90;;;;;;4981702;28;20183;-83
2021/06/05 06:09:54;;;;;;;2.83;2.40;;;16.30;99.90;;;;;;4981320;28;20200;-83
2021/06/05 06:12:20;;;;;;;3.13;1.90;;;16.30;99.90;;;;;;4983764;28;20180;-83
2021/06/05 06:14:45;;;;;;;2.47;2.27;;;16.30;99.90;;;;;;4981532;28;20184;-83
2021/06/05 06:17:11;;;;;;;2.40;1.80;;;16.40;99.90;;;;;;4981123;28;20209;-83
2021/06/05 06:19:38;;;;;;;4.07;2.10;;;16.50;99.90;;;;;;4983713;28;20196;-83
2021/06/05 06:22:04;;;;;;;2.10;1.90;;;16.60;99.90;;;;;;4964486;28;20315;-83
2021/06/05 06:24:29;;;;;;;2.63;1.77;;;16.70;99.90;;;;;;4963959;28;20260;-83
2021/06/05 06:26:55;;;;;;;3.10;1.50;;;16.70;99.90;;;;;;4964811;28;20188;-84
2021/06/05 06:29:28;;;;;;;2.33;1.90;;;16.80;99.90;;;;;;4982624;28;20199;-84
2021/06/05 06:31:54;;;;;;;2.00;1.60;;;16.90;99.90;;;;;;4965463;28;20176;-84
2021/06/05 06:34:20;;;;;;;2.10;1.80;;;17.10;99.90;;;;;;4965728;28;20646;-83
2021/06/05 06:36:46;;;;;;;2.50;1.90;;;17.20;99.90;;;;;;4983036;28;20283;-83
2021/06/05 06:39:13;;;;;;;1.90;1.70;;;17.20;99.90;;;;;;4966136;28;20548;-83
2021/06/05 06:41:40;;;;;;;2.27;2.07;;;17.30;99.90;;;;;;4983563;28;20180;-84
2021/06/05 06:44:08;;;;;;;2.00;1.80;;;17.30;99.90;;;;;;4982865;28;20638;-84
2021/06/05 06:46:46;;;;;;;1.73;1.60;;;17.10;99.90;;;;;;4976244;28;20540;-83
2021/06/05 06:49:14;;;;;;;2.07;1.87;;;17.30;99.90;;;;;;4988922;28;20196;-84
2021/06/05 06:51:41;;;;;;;2.40;1.80;;;17.30;99.90;;;;;;4987390;28;20169;-84
2021/06/05 06:54:08;;;;;;;1.90;1.70;;;17.30;99.90;;;;;;4969837;28;20596;-84
2021/06/05 06:56:34;;;;;;;3.00;1.50;;;17.30;99.90;;;;;;4969821;28;20220;-83
2021/06/05 06:59:00;;;;;;;2.43;1.87;;;17.30;99.90;;;;;;4969441;28;20182;-84
2021/06/05 07:01:27;;;;;;;2.60;2.00;;;17.30;99.90;;;;;;4970836;28;20592;-83
2021/06/05 07:03:52;;;;;;;3.10;1.80;;;17.50;99.90;;;;;;4989505;28;20185;-83
2021/06/05 07:06:18;;;;;;;2.80;1.70;;;17.70;99.90;;;;;;4971178;28;20249;-83
2021/06/05 07:08:44;;;;;;;3.70;1.63;;;17.90;99.90;;;;;;4963631;28;20518;-82
2021/06/05 07:11:17;;;;;;;2.77;1.70;;;18.10;99.90;;;;;;4980597;28;20214;-83
2021/06/05 07:13:43;;;;;;;3.20;1.60;;;18.30;99.90;;;;;;4977300;28;20187;-83
2021/06/05 07:16:10;;;;;;;1.90;1.73;;;18.50;99.90;;;;;;4969588;28;20212;-83
2021/06/05 07:18:36;;;;;;;2.13;1.93;;;18.70;99.90;;;;;;4988953;28;20200;-83
2021/06/05 07:21:05;;;;;;;3.03;2.30;;;19.00;99.90;;;;;;4987067;28;20196;-83
2021/06/05 07:23:33;;;;;;;2.57;2.03;;;19.30;99.90;;;;;;4983951;28;20529;-84
2021/06/05 07:26:01;;;;;;;2.57;2.10;;;19.50;99.90;;;;;;4966663;28;20184;-83
2021/06/05 07:28:33;;;;;;;2.40;1.80;;;19.50;99.90;;;;;;4983721;28;20180;-82
2021/06/05 07:31:00;;;;;;;4.33;2.20;;;19.60;99.90;;;;;;4982582;28;20207;-83
2021/06/05 07:33:27;;;;;;;2.30;2.10;;;19.60;99.90;;;;;;4966785;28;20641;-83
2021/06/05 07:35:55;;;;;;;6.23;2.20;;;19.60;99.90;;;;;;4981753;28;20559;-83
2021/06/05 07:38:23;;;;;;;2.47;1.87;;;19.60;99.90;;;;;;4966659;28;20545;-82
2021/06/05 07:40:49;;;;;;;3.97;1.90;;;19.50;99.90;;;;;;4964872;28;20304;-83
2021/06/05 07:43:17;;;;;;;3.83;2.17;;;19.40;99.90;;;;;;4964972;28;20187;-83
2021/06/05 07:45:43;;;;;;;2.20;1.97;;;19.20;99.90;;;;;;4981914;28;20238;-83
2021/06/05 07:48:10;;;;;;;3.07;2.13;;;19.00;99.90;;;;;;4982128;28;20180;-83
2021/06/05 07:50:36;;;;;;;2.20;2.00;;;19.00;99.90;;;;;;4965191;28;20220;-83
2021/06/05 07:53:02;;;;;;;2.23;2.00;;;19.10;99.90;;;;;;4963821;28;20242;-83
2021/06/05 07:55:28;;;;;;;4.70;2.43;;;19.10;99.90;;;;;;4963384;28;20204;-83
2021/06/05 07:57:54;;;;;;;2.80;2.60;;;19.20;99.90;;;;;;4964164;28;20176;-83
2021/06/05 08:00:23;;;;;;;4.67;3.17;;;19.10;99.90;;;;;;4963654;28;20670;-83
2021/06/05 08:02:50;;;;;;;4.60;2.10;;;19.20;99.90;;;;;;4963905;28;20195;-83
2021/06/05 08:05:16;;;;;;;5.57;2.30;;;19.40;99.90;;;;;;4963627;28;20180;-83
2021/06/05 08:07:42;;;;;;;2.60;2.17;;;19.60;99.90;;;;;;4963748;28;20184;-83
2021/06/05 08:10:10;;;;;;;3.03;2.30;;;19.60;99.90;;;;;;4981674;28;20207;-83
2021/06/05 08:12:36;;;;;;;3.43;2.10;;;19.60;99.90;;;;;;4964188;28;20687;-83
2021/06/05 08:15:03;;;;;;;7.63;2.30;;;19.60;99.90;;;;;;4982405;28;20180;-83
2021/06/05 08:17:29;;;;;;;2.33;2.13;;;19.60;99.90;;;;;;4964175;28;20547;-82
2021/06/05 08:19:55;;;;;;;2.53;2.00;;;19.60;99.90;;;;;;4981405;28;20196;-83
2021/06/05 08:22:23;;;;;;;2.40;2.17;;;19.50;99.90;;;;;;4964046;28;20177;-83
2021/06/05 08:24:50;;;;;;;2.37;1.90;;;19.30;99.90;;;;;;4981427;28;20169;-82
2021/06/05 08:27:16;;;;;;;3.67;2.10;;;19.10;99.90;;;;;;4964195;28;20215;-83
2021/06/05 08:29:42;;;;;;;4.93;2.20;;;18.90;99.90;;;;;;4980446;28;20196;-83
2021/06/05 08:32:08;;;;;;;2.20;2.00;;;18.80;99.90;;;;;;4964007;28;20533;-83
2021/06/05 08:34:33;;;;;;;2.20;2.00;;;18.60;99.90;;;;;;4982057;28;20313;-82
2021/06/05 08:36:59;;;;;;;3.07;2.17;;;18.50;99.90;;;;;;4982489;28;20220;-82
2021/06/05 08:39:25;;;;;;;2.50;2.10;;;18.50;99.90;;;;;;4963832;28;20741;-82
2021/06/05 08:41:54;;;;;;;4.63;2.17;;;18.40;99.90;;;;;;4982189;28;20171;-82
2021/06/05 08:44:36;;;;;;;3.67;2.50;;;18.20;99.90;;;;;;4965165;28;20176;-82
2021/06/05 08:47:28;;;;;;;4.00;2.20;;;18.10;99.90;;;;;;4982006;28;20180;-82
2021/06/05 08:49:54;;;;;;;6.50;2.40;;;18.00;99.90;;;;;;4982453;28;20663;-82
2021/06/05 08:52:42;;;;;;;2.77;2.20;;;17.90;99.90;;;;;;4982535;28;20180;-82
2021/06/05 08:55:16;;;;;;;4.77;2.20;;;17.80;99.90;;;;;;4965937;28;20247;-82
2021/06/05 08:57:50;;;;;;;4.27;2.27;;;17.80;99.90;;;;;;4964950;28;20206;-82
2021/06/05 09:00:15;;;;;;;4.07;2.17;;;17.70;99.90;;;;;;4964157;28;20205;-82
2021/06/05 09:02:45;;;;;;;2.37;1.53;;;17.70;99.90;;;;;;4981746;28;20173;-82
2021/06/05 09:05:17;;;;;;;2.17;1.53;;;17.70;99.90;;;;;;4964646;28;20269;-82
2021/06/05 09:07:43;;;;;;;2.57;1.37;;;17.60;99.90;;;;;;4982278;28;20209;-82
2021/06/05 09:10:12;;;;;;;1.83;1.30;;;17.50;99.90;;;;;;4965164;28;20203;-82
2021/06/05 09:12:37;;;;;;;3.43;1.30;;;17.50;99.90;;;;;;4981816;28;20185;-82
2021/06/05 09:15:04;;;;;;;2.10;1.20;;;17.40;99.90;;;;;;4965688;28;20177;-82
2021/06/05 09:17:30;;;;;;;2.17;1.50;;;17.50;99.90;;;;;;4965851;28;20205;-82
2021/06/05 09:20:01;;;;;;;3.33;1.00;;;17.50;99.90;;;;;;4966182;28;20218;-81
2021/06/05 09:22:32;;;;;;;1.30;1.10;;;17.40;99.90;;;;;;4984809;28;20201;-81
2021/06/05 09:24:58;;;;;;;2.50;1.37;;;17.40;99.90;;;;;;4968911;28;20205;-81
2021/06/05 09:27:28;;;;;;;1.30;1.20;;;17.30;99.90;;;;;;4969461;28;20178;-81
2021/06/05 09:30:02;;;;;;;3.13;1.57;;;17.30;99.90;;;;;;4984991;28;20217;-81
2021/06/05 09:32:54;;;;;;;3.03;1.40;;;17.30;99.90;;;;;;4965982;28;20677;-81
2021/06/05 09:35:25;;;;;;;1.70;1.07;;;17.30;99.90;;;;;;4983313;28;20226;-82
2021/06/05 09:38:14;;;;;;;3.37;1.50;;;17.20;99.90;;;;;;4964152;28;20266;-82
2021/06/05 09:41:16;;;;;;;1.27;1.00;;;17.20;99.90;;;;;;4980455;28;20238;-82
2021/06/05 09:43:43;;;;;;;1.97;1.23;;;17.00;99.90;;;;;;4979738;28;20170;-82
2021/06/05 09:46:28;;;;;;;2.60;1.33;;;17.00;99.90;;;;;;4962528;28;20185;-82
2021/06/05 09:49:10;;;;;;;1.50;1.33;;;16.90;99.90;;;;;;4979875;28;20173;-82
2021/06/05 09:51:39;;;;;;;6.40;1.50;;;17.00;99.90;;;;;;4979720;28;20160;-82
2021/06/05 09:54:13;;;;;;;2.70;1.40;;;16.90;99.90;;;;;;4978852;28;20241;-82
2021/06/05 09:56:44;;;;;;;1.67;1.37;;;16.90;99.90;;;;;;4979505;28;20214;-82
2021/06/05 09:59:31;;;;;;;4.90;1.60;;;16.80;99.90;;;;;;4979662;28;20188;-82
2021/06/05 10:02:09;;;;;;;2.63;1.43;;;16.80;99.90;;;;;;4962496;28;20212;-82
2021/06/05 10:04:37;;;;;;;2.37;1.40;;;16.80;99.90;;;;;;4978904;28;20169;-82
2021/06/05 10:07:20;;;;;;;1.80;1.53;;;16.70;99.90;;;;;;4962222;28;20184;-82
2021/06/05 10:09:46;;;;;;;2.00;1.77;;;16.60;99.90;;;;;;4978415;28;20193;-82
2021/06/05 10:12:18;;;;;;;2.73;1.50;;;16.50;99.90;;;;;;4961165;28;20277;-82
2021/06/05 10:14:57;;;;;;;2.00;1.43;;;16.50;99.90;;;;;;4960581;28;20214;-82
2021/06/05 10:17:51;;;;;;;2.87;1.87;;;16.50;99.90;;;;;;4977483;28;20177;-82
2021/06/05 10:20:38;;;;;;;2.63;1.90;;;16.50;99.90;;;;;;4959780;28;20665;-82
2021/06/05 10:23:04;;;;;;;3.17;2.00;;;16.60;99.90;;;;;;4963639;28;20181;-82
2021/06/05 10:25:37;;;;;;;2.73;1.67;;;16.60;99.90;;;;;;4972570;28;20195;-82
2021/06/05 10:28:09;;;;;;;4.27;1.90;;;16.70;99.90;;;;;;4982887;28;20267;-82
2021/06/05 10:31:13;;;;;;;3.80;2.10;;;16.70;99.90;;;;;;4966892;28;20205;-82
2021/06/05 10:33:44;;;;;;;3.27;1.80;;;16.90;99.90;;;;;;4965948;28;20294;-82
2021/06/05 10:36:17;;;;;;;1.97;1.57;;;17.10;99.90;;;;;;4965818;28;20205;-83
2021/06/05 10:39:03;;;;;;;2.23;1.90;;;17.40;99.90;;;;;;4964882;28;20272;-82
2021/06/05 10:41:32;;;;;;;3.17;1.80;;;17.80;99.90;;;;;;4965883;28;20185;-83
2021/06/05 10:43:58;;;;;;;4.83;2.30;;;18.10;99.90;;;;;;4992911;28;20174;-83
2021/06/05 10:46:51;;;;;;;3.30;2.23;;;18.40;99.90;;;;;;4984840;28;20204;-83
2021/06/05 10:49:30;;;;;;;2.47;2.13;;;18.70;99.90;;;;;;4984066;28;20678;-82
2021/06/05 10:52:36;;;;;;;2.57;2.07;;;18.80;99.90;;;;;;4966620;28;20187;-82
2021/06/05 10:55:14;;;;;;;3.23;2.90;;;18.60;99.90;;;;;;4967265;28;20176;-83
2021/06/05 10:57:48;;;;;;;4.60;3.70;;;18.50;99.90;;;;;;4984293;28;20172;-83
2021/06/05 11:00:43;;;;;;;32.30;23.63;;;18.50;99.90;;;;;;4983966;28;20185;-83
2021/06/05 11:03:30;;;;;;;13.80;8.90;;;18.30;99.90;;;;;;4983861;28;20176;-83
2021/06/05 11:06:04;;;;;;;5.47;3.73;;;18.20;99.90;;;;;;4959532;28;20267;-83
2021/06/05 11:08:47;;;;;;;9.47;5.83;;;18.20;99.90;;;;;;4967980;28;20186;-83
2021/06/05 11:11:22;;;;;;;7.57;4.23;;;18.20;99.90;;;;;;4967204;28;20187;-83
2021/06/05 11:13:47;;;;;;;24.90;20.10;;;18.30;99.90;;;;;;4985155;28;20187;-83
2021/06/05 11:16:19;;;;;;;10.43;7.30;;;18.40;99.90;;;;;;4985503;28;20200;-83
2021/06/05 11:18:48;;;;;;;17.33;13.13;;;18.70;99.90;;;;;;4971074;28;20188;-82
2021/06/05 11:21:22;;;;;;;9.37;7.57;;;19.10;99.90;;;;;;4983501;28;20710;-82
2021/06/05 11:23:57;;;;;;;10.07;8.17;;;19.30;99.90;;;;;;4984307;28;20165;-83
2021/06/05 11:26:35;;;;;;;16.73;12.50;;;19.60;99.90;;;;;;4966783;28;20215;-82
2021/06/05 11:29:20;;;;;;;72.23;55.83;;;20.20;99.90;;;;;;4966359;28;20200;-83
2021/06/05 11:31:58;;;;;;;9.40;7.97;;;21.20;99.90;;;;;;4984730;28;20173;-79
2021/06/05 11:34:29;;;;;;;4.53;3.50;;;22.10;99.90;;;;;;4967351;28;20184;-82
2021/06/05 11:37:07;;;;;;;4.10;2.63;;;22.60;99.90;;;;;;4968539;28;20208;-83
2021/06/05 11:39:33;;;;;;;1.73;1.60;;;23.10;99.90;;;;;;4987402;28;20207;-83
2021/06/05 11:42:19;;;;;;;2.90;1.20;;;23.50;99.90;;;;;;4973859;28;20176;-82
2021/06/05 11:44:47;;;;;;;7.97;5.40;;;24.20;99.90;;;;;;4959156;28;20196;-83
2021/06/05 11:47:16;;;;;;;2.77;1.57;;;24.80;99.90;;;;;;4966678;28;20180;-81
2021/06/05 11:49:42;;;;;;;1.23;1.13;;;25.20;99.90;;;;;;4965103;28;20222;-81
2021/06/05 11:52:26;;;;;;;1.57;1.00;;;25.50;99.90;;;;;;4964710;28;20526;-81
2021/06/05 11:54:57;;;;;;;1.40;1.03;;;25.70;99.90;;;;;;4982232;28;20172;-81
2021/06/05 11:57:43;;;;;;;2.00;1.37;;;26.00;99.90;;;;;;4965840;28;20277;-81
2021/06/05 12:00:22;;;;;;;2.13;1.20;;;25.60;99.90;;;;;;4965203;28;20199;-81
2021/06/05 12:03:17;;;;;;;2.30;1.20;;;24.90;99.90;;;;;;4965625;28;20184;-80
2021/06/05 12:05:43;;;;;;;2.80;1.20;;;24.60;99.90;;;;;;4959735;28;20243;-80
2021/06/05 12:08:19;;;;;;;1.27;1.00;;;24.40;99.90;;;;;;4964882;28;20181;-82
2021/06/05 12:10:46;;;;;;;2.73;1.30;;;23.90;99.90;;;;;;4965285;28;20204;-81
2021/06/05 12:13:33;;;;;;;1.40;1.30;;;23.70;99.90;;;;;;4964929;28;20191;-79
2021/06/05 12:16:12;;;;;;;2.70;1.63;;;23.60;99.90;;;;;;4981953;28;20537;-80
2021/06/05 12:18:37;;;;;;;5.53;1.60;;;25.30;99.90;;;;;;4981699;28;20532;-82
2021/06/05 12:21:21;;;;;;;2.37;1.13;;;26.20;99.90;;;;;;4981523;28;20204;-80
2021/06/05 12:23:47;;;;;;;3.63;1.40;;;27.20;99.90;;;;;;4982431;28;20183;-80
2021/06/05 12:26:22;;;;;;;2.43;1.10;;;27.20;99.90;;;;;;4964564;28;20205;-81
2021/06/05 12:28:52;;;;;;;47.30;40.00;;;26.10;99.90;;;;;;4964024;28;20271;-80
2021/06/05 12:31:27;;;;;;;5.20;3.50;;;25.80;99.90;;;;;;4981713;28;20204;-81
2021/06/05 12:33:58;;;;;;;3.60;1.73;;;26.40;99.90;;;;;;4964719;28;20247;-81
2021/06/05 12:36:27;;;;;;;3.37;1.60;;;26.70;99.90;;;;;;4980647;28;20204;-80
2021/06/05 12:39:14;;;;;;;1.97;1.70;;;25.50;99.90;;;;;;4963701;28;20181;-80
2021/06/05 12:41:43;;;;;;;2.03;1.23;;;24.90;99.90;;;;;;4990845;28;20177;-81
2021/06/05 12:44:14;;;;;;;1.40;1.30;;;26.10;99.90;;;;;;4965791;28;20175;-81
2021/06/05 12:46:40;;;;;;;3.17;2.33;;;26.70;99.90;;;;;;4980357;28;20659;-80
2021/06/05 12:49:15;;;;;;;4.57;3.23;;;26.00;99.90;;;;;;4962049;28;20208;-80
2021/06/05 12:51:49;;;;;;;3.77;1.90;;;25.50;99.90;;;;;;4962332;28;20189;-83
2021/06/05 12:54:24;;;;;;;3.13;1.80;;;24.60;99.90;;;;;;4980902;28;20648;-82
2021/06/05 12:56:50;;;;;;;3.53;1.60;;;23.90;99.90;;;;;;4962201;28;20304;-81
2021/06/05 12:59:29;;;;;;;2.93;1.83;;;23.40;99.90;;;;;;4963794;28;20201;-81
2021/06/05 13:01:54;;;;;;;2.37;1.70;;;23.20;99.90;;;;;;4977336;28;20180;-81